Time;durP1;ratioP1;P1;durP2;ratioP2;P2;SDS_P1;SDS_P2;PMS_P1;PMS_P2;Temp;Humidity;BMP_temperature;BMP_pressure;BME280_temperature;BME280_humidity;BME280_pressure;Samples;Min_cycle;Max_cycle;Signal;HPM_P1;HPM_P2
2023/09/26 00:01:27;;;;;;;5.72;4.50;;;16.90;99.90;;;;;;5017392;28;20045;-74
2023/09/26 00:03:53;;;;;;;5.70;4.43;;;16.90;99.90;;;;;;5001218;28;20034;-74
2023/09/26 00:06:20;;;;;;;6.03;4.53;;;16.80;99.90;;;;;;5017277;28;20486;-74
2023/09/26 00:08:46;;;;;;;7.68;4.78;;;16.80;99.90;;;;;;5017237;28;20045;-74
2023/09/26 00:11:12;;;;;;;6.63;4.25;;;16.90;99.90;;;;;;5017397;28;20051;-74
2023/09/26 00:13:38;;;;;;;6.85;4.85;;;16.80;99.90;;;;;;5017051;28;20084;-74
2023/09/26 00:16:06;;;;;;;6.85;4.53;;;16.80;99.90;;;;;;5000714;28;20037;-74
2023/09/26 00:18:32;;;;;;;8.93;4.85;;;16.80;99.90;;;;;;5017251;28;20049;-75
2023/09/26 00:20:58;;;;;;;5.97;4.30;;;16.80;99.90;;;;;;5000588;28;20046;-75
2023/09/26 00:23:24;;;;;;;5.30;4.05;;;16.80;99.90;;;;;;5016903;28;20099;-75
2023/09/26 00:25:50;;;;;;;5.68;4.43;;;16.80;99.90;;;;;;5016927;28;20042;-74
2023/09/26 00:28:15;;;;;;;8.18;4.60;;;16.70;99.90;;;;;;5016856;28;20117;-74
2023/09/26 00:30:42;;;;;;;7.47;4.32;;;16.70;99.90;;;;;;5016814;28;20071;-74
2023/09/26 00:33:08;;;;;;;8.20;4.47;;;16.70;99.90;;;;;;5016596;28;20072;-74
2023/09/26 00:35:34;;;;;;;6.57;4.60;;;16.70;99.90;;;;;;5016934;28;20494;-74
2023/09/26 00:38:01;;;;;;;5.55;4.78;;;16.60;99.90;;;;;;5016692;28;20046;-74
2023/09/26 00:40:26;;;;;;;9.23;5.15;;;16.60;99.90;;;;;;5016556;28;20080;-74
2023/09/26 00:42:52;;;;;;;6.20;4.82;;;16.60;99.90;;;;;;5015887;28;20096;-74
2023/09/26 00:45:18;;;;;;;7.32;5.00;;;16.60;99.90;;;;;;5016812;28;20038;-74
2023/09/26 00:47:44;;;;;;;8.30;5.30;;;16.60;99.90;;;;;;5000153;28;20482;-74
2023/09/26 00:50:14;;;;;;;13.25;5.28;;;16.50;99.90;;;;;;5016398;28;20421;-74
2023/09/26 00:52:46;;;;;;;8.02;4.93;;;16.50;99.90;;;;;;5016336;28;20077;-74
2023/09/26 00:55:14;;;;;;;12.23;5.65;;;16.40;99.90;;;;;;5016466;28;20494;-74
2023/09/26 00:57:40;;;;;;;8.40;5.10;;;16.40;99.90;;;;;;5000230;28;20046;-74
2023/09/26 01:00:07;;;;;;;11.02;5.72;;;16.30;99.90;;;;;;5016330;28;20045;-74
2023/09/26 01:02:33;;;;;;;8.55;5.18;;;16.30;99.90;;;;;;4999811;28;20168;-74
2023/09/26 01:04:59;;;;;;;9.00;5.20;;;16.30;99.90;;;;;;5016510;28;20041;-74
2023/09/26 01:07:26;;;;;;;8.00;5.85;;;16.30;99.90;;;;;;5016143;28;20045;-74
2023/09/26 01:09:52;;;;;;;8.35;5.80;;;16.30;99.90;;;;;;5016067;28;20076;-74
2023/09/26 01:12:19;;;;;;;8.57;5.90;;;16.20;99.90;;;;;;5016090;28;20037;-74
2023/09/26 01:14:45;;;;;;;8.63;5.40;;;16.30;99.90;;;;;;5015978;28;20057;-74
2023/09/26 01:17:11;;;;;;;8.73;5.60;;;16.20;99.90;;;;;;5015969;28;20041;-74
2023/09/26 01:19:36;;;;;;;9.13;5.57;;;16.20;99.90;;;;;;5016091;28;20040;-74
2023/09/26 01:22:03;;;;;;;8.50;5.65;;;16.10;99.90;;;;;;5015939;28;20099;-74
2023/09/26 01:24:29;;;;;;;7.68;5.43;;;16.10;99.90;;;;;;5016049;28;20072;-74
2023/09/26 01:26:55;;;;;;;10.63;5.57;;;16.10;99.90;;;;;;5015854;28;20482;-74
2023/09/26 01:29:21;;;;;;;8.65;5.45;;;16.10;99.90;;;;;;5015848;28;20110;-74
2023/09/26 01:31:46;;;;;;;8.05;5.15;;;16.10;99.90;;;;;;5015881;28;20049;-74
2023/09/26 01:34:12;;;;;;;7.82;5.28;;;16.10;99.90;;;;;;5015851;28;20049;-74
2023/09/26 01:36:38;;;;;;;9.45;5.20;;;16.00;99.90;;;;;;5015685;28;20045;-74
2023/09/26 01:39:05;;;;;;;11.23;5.25;;;16.00;99.90;;;;;;4999294;28;20147;-74
2023/09/26 01:41:31;;;;;;;8.50;5.47;;;16.00;99.90;;;;;;5015582;28;20091;-74
2023/09/26 01:43:57;;;;;;;8.05;5.68;;;16.00;99.90;;;;;;5015551;28;20045;-74
2023/09/26 01:46:22;;;;;;;11.15;5.32;;;16.00;99.90;;;;;;5015485;28;20037;-74
2023/09/26 01:48:48;;;;;;;6.95;5.30;;;15.90;99.90;;;;;;5015785;28;20033;-74
2023/09/26 01:51:14;;;;;;;10.15;5.47;;;15.90;99.90;;;;;;5015751;28;20041;-74
2023/09/26 01:53:40;;;;;;;9.68;5.57;;;15.90;99.90;;;;;;5015357;28;20087;-74
2023/09/26 01:56:05;;;;;;;8.38;5.07;;;15.90;99.90;;;;;;5015479;28;20061;-74
2023/09/26 01:58:32;;;;;;;8.43;5.43;;;15.90;99.90;;;;;;5015725;28;20083;-74
2023/09/26 02:00:58;;;;;;;9.38;5.40;;;15.90;99.90;;;;;;5015307;28;20041;-74
2023/09/26 02:03:23;;;;;;;7.82;5.78;;;15.90;99.90;;;;;;5015556;28;20490;-74
2023/09/26 02:05:49;;;;;;;9.07;5.25;;;16.00;99.90;;;;;;4999107;28;20038;-74
2023/09/26 02:08:17;;;;;;;6.95;5.70;;;16.00;99.90;;;;;;5015307;28;20045;-74
2023/09/26 02:10:43;;;;;;;8.73;5.43;;;15.90;99.90;;;;;;4998900;28;20045;-74
2023/09/26 02:13:09;;;;;;;10.68;5.80;;;16.00;99.90;;;;;;5015492;28;20049;-74
2023/09/26 02:15:38;;;;;;;7.22;5.80;;;15.90;99.90;;;;;;5015302;28;20500;-74
2023/09/26 02:18:04;;;;;;;9.38;6.15;;;16.00;99.90;;;;;;5015237;28;20465;-74
2023/09/26 02:20:29;;;;;;;8.50;5.95;;;15.90;99.90;;;;;;5015138;28;20037;-74
2023/09/26 02:22:55;;;;;;;8.60;5.40;;;15.90;99.90;;;;;;5015167;28;20030;-74
2023/09/26 02:25:21;;;;;;;8.80;5.72;;;15.90;99.90;;;;;;4998847;28;20034;-74
2023/09/26 02:27:48;;;;;;;8.27;6.05;;;15.90;99.90;;;;;;5015423;28;20045;-74
2023/09/26 02:30:22;;;;;;;9.60;5.93;;;15.90;99.90;;;;;;5015123;28;20566;-74
2023/09/26 02:32:48;;;;;;;9.07;6.45;;;15.90;99.90;;;;;;4999051;28;20502;-74
2023/09/26 02:35:16;;;;;;;9.90;5.93;;;15.80;99.90;;;;;;5015326;28;20107;-74
2023/09/26 02:37:43;;;;;;;11.32;6.45;;;15.80;99.90;;;;;;5015298;28;20521;-74
2023/09/26 02:40:10;;;;;;;10.13;6.57;;;15.80;99.90;;;;;;5015227;28;20380;-74
2023/09/26 02:42:37;;;;;;;8.07;6.43;;;15.70;99.90;;;;;;5015029;28;20033;-74
2023/09/26 02:45:03;;;;;;;9.63;7.32;;;15.70;99.90;;;;;;5015013;28;20037;-74
2023/09/26 02:47:28;;;;;;;11.50;6.50;;;15.60;99.90;;;;;;5015212;28;20072;-74
2023/09/26 02:49:54;;;;;;;8.57;6.50;;;15.60;99.90;;;;;;5015212;28;20049;-74
2023/09/26 02:52:20;;;;;;;9.88;7.20;;;15.60;99.90;;;;;;5014918;28;20053;-74
2023/09/26 02:54:46;;;;;;;9.50;6.93;;;15.50;99.90;;;;;;5015870;28;20076;-74
2023/09/26 02:57:11;;;;;;;9.25;6.95;;;15.50;99.90;;;;;;5014820;28;20409;-74
2023/09/26 02:59:37;;;;;;;9.95;7.00;;;15.50;99.90;;;;;;5014980;28;20152;-74
2023/09/26 03:02:02;;;;;;;8.80;6.65;;;15.50;99.90;;;;;;5014877;28;20456;-74
2023/09/26 03:04:28;;;;;;;11.38;8.30;;;15.50;99.90;;;;;;5014808;28;20124;-74
2023/09/26 03:06:54;;;;;;;12.02;7.35;;;15.50;99.90;;;;;;5017163;28;20124;-74
2023/09/26 03:09:19;;;;;;;9.98;7.20;;;15.40;99.90;;;;;;5018634;28;20044;-74
2023/09/26 03:11:45;;;;;;;10.82;7.90;;;15.40;99.90;;;;;;5018371;28;20567;-74
2023/09/26 03:14:11;;;;;;;11.18;7.65;;;15.30;99.90;;;;;;5018485;28;20045;-74
2023/09/26 03:16:37;;;;;;;11.50;7.40;;;15.30;99.90;;;;;;5002419;28;20398;-74
2023/09/26 03:19:03;;;;;;;10.02;7.10;;;15.20;99.90;;;;;;5018120;28;20089;-74
2023/09/26 03:21:29;;;;;;;11.60;7.25;;;15.20;99.90;;;;;;5018400;28;20095;-74
2023/09/26 03:23:55;;;;;;;8.88;7.40;;;15.20;99.90;;;;;;5018336;28;20453;-74
2023/09/26 03:26:20;;;;;;;10.27;7.75;;;15.10;99.90;;;;;;5018258;28;20510;-74
2023/09/26 03:28:46;;;;;;;11.30;7.72;;;15.10;99.90;;;;;;5018028;28;20068;-74
2023/09/26 03:31:11;;;;;;;9.18;7.50;;;15.10;99.90;;;;;;5017971;28;20040;-74
2023/09/26 03:33:37;;;;;;;9.50;7.55;;;15.10;99.90;;;;;;5017972;28;20080;-74
2023/09/26 03:36:04;;;;;;;9.45;7.55;;;15.10;99.90;;;;;;5017884;28;20422;-74
2023/09/26 03:38:30;;;;;;;9.07;7.60;;;15.00;99.90;;;;;;5001606;28;20038;-74
2023/09/26 03:41:00;;;;;;;11.93;7.95;;;15.00;99.90;;;;;;5017715;28;20445;-74
2023/09/26 03:43:27;;;;;;;11.10;8.35;;;15.00;99.90;;;;;;5018216;28;20034;-74
2023/09/26 03:46:03;;;;;;;9.68;8.10;;;14.90;99.90;;;;;;5001357;28;20069;-74
2023/09/26 03:48:30;;;;;;;9.68;8.10;;;14.90;99.90;;;;;;5001336;28;20033;-74
2023/09/26 03:51:06;;;;;;;11.57;8.13;;;14.80;99.90;;;;;;5017852;28;20509;-74
2023/09/26 03:53:31;;;;;;;10.07;7.65;;;14.70;99.90;;;;;;5001240;28;20053;-74
2023/09/26 03:55:57;;;;;;;10.85;8.13;;;14.70;99.90;;;;;;5017793;28;20033;-74
2023/09/26 03:58:23;;;;;;;13.80;9.07;;;14.70;99.90;;;;;;5017461;28;20500;-74
2023/09/26 04:00:48;;;;;;;10.02;8.60;;;14.60;99.90;;;;;;5017384;28;20041;-74
2023/09/26 04:03:14;;;;;;;10.23;8.77;;;14.60;99.90;;;;;;5017331;28;20401;-74
2023/09/26 04:05:40;;;;;;;12.40;9.13;;;14.50;99.90;;;;;;5017353;28;20037;-74
2023/09/26 04:08:06;;;;;;;9.52;8.45;;;14.50;99.90;;;;;;5017247;28;20391;-74
2023/09/26 04:10:39;;;;;;;10.70;9.05;;;14.40;99.90;;;;;;5017182;28;20045;-74
2023/09/26 04:13:04;;;;;;;10.25;9.23;;;14.50;99.90;;;;;;5017106;28;20125;-74
2023/09/26 04:15:30;;;;;;;12.18;9.05;;;14.40;99.90;;;;;;5017148;28;20129;-74
2023/09/26 04:17:56;;;;;;;10.23;9.05;;;14.40;99.90;;;;;;5015981;28;20045;-74
2023/09/26 04:20:22;;;;;;;13.05;9.10;;;14.40;99.90;;;;;;5017116;28;20106;-74
2023/09/26 04:22:48;;;;;;;10.40;8.38;;;14.40;99.90;;;;;;5016947;28;20052;-74
2023/09/26 04:25:14;;;;;;;11.20;9.43;;;14.40;99.90;;;;;;5016918;28;20041;-74
2023/09/26 04:27:40;;;;;;;10.20;8.10;;;14.30;99.90;;;;;;5000807;28;20041;-74
2023/09/26 04:30:07;;;;;;;12.07;9.57;;;14.30;99.90;;;;;;5017068;28;20056;-74
2023/09/26 04:32:32;;;;;;;12.90;8.68;;;14.30;99.90;;;;;;5016669;28;20498;-74
2023/09/26 04:34:58;;;;;;;12.68;8.50;;;14.30;99.90;;;;;;5000739;28;20073;-74
2023/09/26 04:37:24;;;;;;;10.00;8.68;;;14.30;99.90;;;;;;5016723;28;20560;-74
2023/09/26 04:39:49;;;;;;;11.15;9.13;;;14.30;99.90;;;;;;5016627;28;20038;-74
2023/09/26 04:42:15;;;;;;;13.10;8.82;;;14.20;99.90;;;;;;5016698;28;20087;-74
2023/09/26 04:44:40;;;;;;;11.18;9.50;;;14.20;99.90;;;;;;5016871;28;20063;-74
2023/09/26 04:47:06;;;;;;;12.10;9.48;;;14.20;99.90;;;;;;5016596;28;20033;-74
2023/09/26 04:49:34;;;;;;;11.80;9.05;;;14.20;99.90;;;;;;5016531;28;20037;-74
2023/09/26 04:52:00;;;;;;;12.27;9.25;;;14.20;99.90;;;;;;5016757;28;20045;-74
2023/09/26 04:54:25;;;;;;;10.52;9.43;;;14.10;99.90;;;;;;5016402;28;20522;-74
2023/09/26 04:56:51;;;;;;;12.93;9.27;;;14.10;99.90;;;;;;5016415;28;20053;-74
2023/09/26 04:59:16;;;;;;;12.10;9.40;;;14.10;99.90;;;;;;5016541;28;20041;-74
2023/09/26 05:01:42;;;;;;;10.25;9.13;;;14.10;99.90;;;;;;5016301;28;20380;-74
2023/09/26 05:04:08;;;;;;;11.48;9.07;;;14.10;99.90;;;;;;5016441;28;20041;-74
2023/09/26 05:06:34;;;;;;;10.82;8.95;;;14.00;99.90;;;;;;5016230;28;20512;-74
2023/09/26 05:08:59;;;;;;;13.98;9.30;;;14.00;99.90;;;;;;5016131;28;20033;-74
2023/09/26 05:11:27;;;;;;;10.50;9.15;;;14.00;99.90;;;;;;5016119;28;20041;-74
2023/09/26 05:13:53;;;;;;;11.88;9.75;;;14.00;99.90;;;;;;4999649;28;20076;-74
2023/09/26 05:16:19;;;;;;;12.93;9.70;;;14.00;99.90;;;;;;5016353;28;20064;-74
2023/09/26 05:18:44;;;;;;;10.88;9.52;;;14.00;99.90;;;;;;5016027;28;20494;-74
2023/09/26 05:21:11;;;;;;;13.20;9.50;;;14.00;99.90;;;;;;5015886;28;20051;-74
2023/09/26 05:23:37;;;;;;;11.05;9.02;;;14.00;99.90;;;;;;4999591;28;20053;-74
2023/09/26 05:26:10;;;;;;;12.13;9.02;;;13.90;99.90;;;;;;5016207;28;20422;-74
2023/09/26 05:28:36;;;;;;;10.95;9.30;;;13.90;99.90;;;;;;5015886;28;20033;-74
2023/09/26 05:31:02;;;;;;;12.30;8.90;;;13.90;99.90;;;;;;5015723;28;20095;-74
2023/09/26 05:33:28;;;;;;;11.93;8.95;;;13.90;99.90;;;;;;5015624;28;20494;-74
2023/09/26 05:35:54;;;;;;;14.75;9.40;;;13.90;99.90;;;;;;5015747;28;20136;-74
2023/09/26 05:38:20;;;;;;;11.18;9.02;;;13.90;99.90;;;;;;4999182;28;20069;-74
2023/09/26 05:40:47;;;;;;;12.60;8.95;;;13.90;99.90;;;;;;4999156;28;20041;-74
2023/09/26 05:43:12;;;;;;;11.65;9.60;;;13.90;99.90;;;;;;4999245;28;20029;-74
2023/09/26 05:45:38;;;;;;;14.82;9.80;;;13.90;99.90;;;;;;5015623;28;20084;-74
2023/09/26 05:48:04;;;;;;;11.18;8.68;;;13.90;99.90;;;;;;5015515;28;20053;-74
2023/09/26 05:50:30;;;;;;;11.35;9.23;;;13.90;99.90;;;;;;5015546;28;20123;-74
2023/09/26 05:52:56;;;;;;;11.15;8.95;;;13.90;99.90;;;;;;5015734;28;20483;-74
2023/09/26 05:55:22;;;;;;;10.73;8.95;;;13.90;99.90;;;;;;5015389;28;20506;-74
2023/09/26 05:57:48;;;;;;;15.38;9.70;;;13.90;99.90;;;;;;5015473;28;20069;-74
2023/09/26 06:00:14;;;;;;;10.27;8.95;;;13.90;99.90;;;;;;4999185;28;20068;-74
2023/09/26 06:02:40;;;;;;;12.98;9.55;;;13.90;99.90;;;;;;5015288;28;20111;-74
2023/09/26 06:05:06;;;;;;;13.48;9.45;;;13.90;99.90;;;;;;5015424;28;20033;-74
2023/09/26 06:07:32;;;;;;;15.60;9.35;;;13.90;99.90;;;;;;5015627;28;20038;-74
2023/09/26 06:09:58;;;;;;;13.10;8.75;;;13.90;99.90;;;;;;5015485;28;20056;-74
2023/09/26 06:12:24;;;;;;;11.30;9.02;;;13.90;99.90;;;;;;5015555;28;20053;-73
2023/09/26 06:14:51;;;;;;;10.80;8.70;;;13.90;99.90;;;;;;5015221;28;20088;-73
2023/09/26 06:17:16;;;;;;;10.68;8.52;;;14.00;99.90;;;;;;5015466;28;20128;-74
2023/09/26 06:19:47;;;;;;;10.50;8.05;;;14.00;99.90;;;;;;5015183;28;20125;-74
2023/09/26 06:22:16;;;;;;;9.18;7.95;;;14.00;99.90;;;;;;4999151;28;20079;-74
2023/09/26 06:24:42;;;;;;;9.98;8.00;;;14.00;99.90;;;;;;5015414;28;20076;-74
2023/09/26 06:27:08;;;;;;;10.90;8.43;;;14.00;99.90;;;;;;5015290;28;20120;-74
2023/09/26 06:29:38;;;;;;;10.25;8.23;;;14.10;99.90;;;;;;5015063;28;20076;-74
2023/09/26 06:32:04;;;;;;;9.23;8.18;;;14.10;99.90;;;;;;5015050;28;20064;-74
2023/09/26 06:34:31;;;;;;;11.93;8.52;;;14.10;99.90;;;;;;5015172;28;20037;-74
2023/09/26 06:36:57;;;;;;;10.98;8.18;;;14.20;99.90;;;;;;5015196;28;20084;-73
2023/09/26 06:39:24;;;;;;;11.13;8.25;;;14.20;99.90;;;;;;5015084;28;20073;-73
2023/09/26 06:41:49;;;;;;;11.07;8.13;;;14.20;99.90;;;;;;5017376;28;20087;-73
2023/09/26 06:44:15;;;;;;;11.95;8.27;;;14.30;99.90;;;;;;5018914;28;20041;-73
2023/09/26 06:46:41;;;;;;;13.05;8.15;;;14.30;99.90;;;;;;5002580;28;20037;-73
2023/09/26 06:49:07;;;;;;;8.82;7.85;;;14.30;99.90;;;;;;5018782;28;20045;-73
2023/09/26 06:51:33;;;;;;;9.63;7.00;;;14.40;99.90;;;;;;5019012;28;20077;-74
2023/09/26 06:54:02;;;;;;;10.05;8.07;;;14.40;99.90;;;;;;5018645;28;20457;-74
2023/09/26 06:56:29;;;;;;;9.98;8.32;;;14.40;99.90;;;;;;5018573;28;20405;-74
2023/09/26 06:58:54;;;;;;;10.40;8.45;;;14.50;99.90;;;;;;5018682;28;20410;-74
2023/09/26 07:01:20;;;;;;;13.25;7.72;;;14.50;99.90;;;;;;5018829;28;20037;-74
2023/09/26 07:03:45;;;;;;;11.88;8.55;;;14.60;99.90;;;;;;5018448;28;20461;-74
2023/09/26 07:06:12;;;;;;;10.43;8.13;;;14.60;99.90;;;;;;5018500;28;20044;-74
2023/09/26 07:08:39;;;;;;;11.30;7.75;;;14.70;99.90;;;;;;5018485;28;20044;-74
2023/09/26 07:11:05;;;;;;;12.15;7.53;;;14.80;99.90;;;;;;5018278;28;20041;-74
2023/09/26 07:13:34;;;;;;;11.20;7.32;;;14.80;99.90;;;;;;5018523;28;20042;-70
2023/09/26 07:16:02;;;;;;;10.70;7.45;;;14.90;99.90;;;;;;5018522;28;20119;-70
2023/09/26 07:18:30;;;;;;;9.32;7.47;;;14.90;99.90;;;;;;5018425;28;20044;-70
2023/09/26 07:20:59;;;;;;;9.45;7.13;;;15.00;99.90;;;;;;5018189;28;20049;-70
2023/09/26 07:23:25;;;;;;;11.02;7.57;;;15.10;99.90;;;;;;5018296;28;20041;-70
2023/09/26 07:25:50;;;;;;;8.10;6.70;;;15.10;99.90;;;;;;5018392;28;20483;-70
2023/09/26 07:28:16;;;;;;;10.73;7.22;;;15.20;99.90;;;;;;5018333;28;20372;-70
2023/09/26 07:30:44;;;;;;;9.63;7.20;;;15.30;99.90;;;;;;5018018;28;20498;-70
2023/09/26 07:33:10;;;;;;;8.73;6.80;;;15.40;99.90;;;;;;5017760;28;20045;-70
2023/09/26 07:35:35;;;;;;;9.68;7.25;;;15.40;99.90;;;;;;5018177;28;20037;-70
2023/09/26 07:38:01;;;;;;;14.13;7.85;;;15.50;99.90;;;;;;5018159;28;20449;-70
2023/09/26 07:40:27;;;;;;;11.10;7.45;;;15.50;99.90;;;;;;5017876;28;20413;-70
2023/09/26 07:42:52;;;;;;;10.32;7.45;;;15.60;99.90;;;;;;5017730;28;20088;-70
2023/09/26 07:45:18;;;;;;;10.05;7.20;;;15.70;99.90;;;;;;5017826;28;20087;-70
2023/09/26 07:47:44;;;;;;;11.50;7.93;;;15.70;99.90;;;;;;5017643;28;20098;-70
2023/09/26 07:50:10;;;;;;;11.23;7.20;;;15.80;99.90;;;;;;5017633;28;20045;-70
2023/09/26 07:52:36;;;;;;;11.20;7.53;;;15.90;99.90;;;;;;5017665;28;20124;-70
2023/09/26 07:55:02;;;;;;;7.97;6.40;;;16.10;99.90;;;;;;5017846;28;20502;-70
2023/09/26 07:57:28;;;;;;;9.50;7.13;;;16.20;99.90;;;;;;5017476;28;20414;-70
2023/09/26 07:59:54;;;;;;;11.40;6.95;;;16.30;99.90;;;;;;5017418;28;20053;-70
2023/09/26 08:02:20;;;;;;;14.32;7.55;;;16.40;99.90;;;;;;5017381;28;20037;-70
2023/09/26 08:04:46;;;;;;;11.23;7.00;;;16.50;99.90;;;;;;5017278;28;20498;-70
2023/09/26 08:07:12;;;;;;;10.05;7.32;;;16.50;99.90;;;;;;5017294;28;20044;-70
2023/09/26 08:09:38;;;;;;;11.88;6.82;;;16.70;99.90;;;;;;5017300;28;20049;-70
2023/09/26 08:12:04;;;;;;;10.63;7.20;;;16.80;99.90;;;;;;5017262;28;20076;-78
2023/09/26 08:14:30;;;;;;;8.73;6.40;;;16.90;99.90;;;;;;5002044;28;20037;-79
2023/09/26 08:16:55;;;;;;;10.25;7.22;;;17.00;99.90;;;;;;5018083;28;20040;-74
2023/09/26 08:19:21;;;;;;;10.65;7.53;;;17.10;99.90;;;;;;5017055;28;20045;-71
2023/09/26 08:21:47;;;;;;;10.27;7.10;;;17.10;99.90;;;;;;5017053;28;20038;-71
2023/09/26 08:24:12;;;;;;;12.63;7.00;;;17.10;99.90;;;;;;5016944;28;20037;-71
2023/09/26 08:26:38;;;;;;;9.75;7.07;;;17.00;99.90;;;;;;5017024;28;20041;-71
2023/09/26 08:29:07;;;;;;;10.15;6.55;;;17.00;99.90;;;;;;5016925;28;20037;-70
2023/09/26 08:31:34;;;;;;;9.68;6.90;;;17.00;99.90;;;;;;5016858;28;20046;-70
2023/09/26 08:33:59;;;;;;;9.40;6.78;;;17.00;99.90;;;;;;5016688;28;20038;-73
2023/09/26 08:36:25;;;;;;;9.60;6.68;;;17.00;99.90;;;;;;5016754;28;20087;-73
2023/09/26 08:38:51;;;;;;;11.23;7.18;;;17.00;99.90;;;;;;5016757;28;20521;-73
2023/09/26 08:41:18;;;;;;;11.20;7.10;;;17.10;99.90;;;;;;5016657;28;20068;-73
2023/09/26 08:43:44;;;;;;;11.38;6.53;;;17.10;99.90;;;;;;5016630;28;20044;-73
2023/09/26 08:46:10;;;;;;;8.70;6.20;;;17.20;99.90;;;;;;5016575;28;20037;-73
2023/09/26 08:48:37;;;;;;;8.55;6.75;;;17.20;99.90;;;;;;5016560;28;20141;-73
2023/09/26 08:51:03;;;;;;;11.38;7.20;;;17.20;99.90;;;;;;5016495;28;20383;-73
2023/09/26 08:53:29;;;;;;;9.25;6.28;;;17.20;99.90;;;;;;5016379;28;20037;-73
2023/09/26 08:55:55;;;;;;;9.93;7.03;;;17.20;99.90;;;;;;5016457;28;20045;-73
2023/09/26 08:58:21;;;;;;;12.35;7.68;;;17.20;99.90;;;;;;5016429;28;20041;-73
2023/09/26 09:00:47;;;;;;;12.25;7.22;;;17.20;99.90;;;;;;5016265;28;20064;-73
2023/09/26 09:03:13;;;;;;;12.95;7.03;;;17.30;99.90;;;;;;5016124;28;20072;-73
2023/09/26 09:05:40;;;;;;;12.00;6.65;;;17.40;99.90;;;;;;5015929;28;20532;-73
2023/09/26 09:08:07;;;;;;;8.30;6.40;;;17.40;99.90;;;;;;5016227;28;20033;-73
2023/09/26 09:10:48;;;;;;;10.23;6.72;;;17.40;99.90;;;;;;5016159;28;20465;-73
2023/09/26 09:13:28;;;;;;;10.23;6.05;;;17.50;99.90;;;;;;5016368;28;20063;-73
2023/09/26 09:16:16;;;;;;;11.65;6.20;;;17.80;99.90;;;;;;5016112;28;20124;-73
2023/09/26 09:18:47;;;;;;;9.68;6.18;;;18.10;99.90;;;;;;5016059;28;20060;-73
2023/09/26 09:21:22;;;;;;;11.13;6.55;;;19.00;99.90;;;;;;5015902;28;20126;-73
2023/09/26 09:23:50;;;;;;;10.75;5.97;;;19.90;99.90;;;;;;5015891;28;20091;-73
2023/09/26 09:26:15;;;;;;;8.85;5.97;;;20.70;99.90;;;;;;4999827;28;20038;-73
2023/09/26 09:28:41;;;;;;;10.02;5.63;;;21.40;99.50;;;;;;5015867;28;20513;-73
2023/09/26 09:31:06;;;;;;;8.52;6.10;;;21.50;98.70;;;;;;5016057;28;20048;-73
2023/09/26 09:33:32;;;;;;;8.90;5.13;;;21.70;98.20;;;;;;5015640;28;20051;-73
2023/09/26 09:35:58;;;;;;;10.23;5.50;;;21.90;96.90;;;;;;4999641;28;20045;-73
2023/09/26 09:38:24;;;;;;;8.70;5.80;;;22.70;95.50;;;;;;5015654;28;20049;-73
2023/09/26 09:40:51;;;;;;;11.85;5.32;;;23.50;93.70;;;;;;5015632;28;20033;-73
2023/09/26 09:43:16;;;;;;;9.32;5.05;;;24.20;91.60;;;;;;5015561;28;20061;-73
2023/09/26 09:45:43;;;;;;;10.25;5.47;;;24.60;88.50;;;;;;5015574;28;20080;-73
2023/09/26 09:48:09;;;;;;;8.55;5.38;;;24.40;86.80;;;;;;5015642;28;20041;-73
2023/09/26 09:50:39;;;;;;;7.47;5.07;;;24.20;84.90;;;;;;5015805;28;20114;-73
2023/09/26 09:53:05;;;;;;;9.13;4.63;;;24.00;87.00;;;;;;5015390;28;20087;-73
2023/09/26 09:55:38;;;;;;;7.60;5.07;;;23.90;86.40;;;;;;5015385;28;20072;-73
2023/09/26 09:58:08;;;;;;;7.38;5.07;;;23.90;86.10;;;;;;5015466;28;20105;-73
2023/09/26 10:00:36;;;;;;;10.75;4.70;;;23.90;87.20;;;;;;4999150;28;20139;-73
2023/09/26 10:03:04;;;;;;;8.57;3.85;;;23.90;88.40;;;;;;5015299;28;20120;-73
2023/09/26 10:05:31;;;;;;;12.27;4.85;;;23.60;88.50;;;;;;5015343;28;20037;-73
2023/09/26 10:07:58;;;;;;;7.13;4.53;;;23.40;87.00;;;;;;5015354;28;20159;-73
2023/09/26 10:10:25;;;;;;;10.32;4.90;;;22.90;87.70;;;;;;5015358;28;20045;-73
2023/09/26 10:12:52;;;;;;;8.52;4.88;;;22.60;89.50;;;;;;5015231;28;20052;-73
2023/09/26 10:15:17;;;;;;;9.40;4.72;;;22.40;89.10;;;;;;5015309;28;20485;-73
2023/09/26 10:17:45;;;;;;;8.32;4.78;;;22.10;89.60;;;;;;5019421;28;20132;-73
2023/09/26 10:20:14;;;;;;;9.50;5.15;;;21.90;90.50;;;;;;5019294;28;20042;-73
2023/09/26 10:22:41;;;;;;;8.30;5.57;;;21.70;90.50;;;;;;5002935;28;20037;-73
2023/09/26 10:25:08;;;;;;;7.82;4.47;;;21.50;90.80;;;;;;5019397;28;20037;-73
2023/09/26 10:27:34;;;;;;;7.85;4.38;;;21.40;91.60;;;;;;5019438;28;20033;-74
2023/09/26 10:30:03;;;;;;;8.60;3.83;;;21.50;91.90;;;;;;5019181;28;20038;-73
2023/09/26 10:32:38;;;;;;;7.47;4.60;;;21.50;91.50;;;;;;5002705;28;20037;-73
2023/09/26 10:35:13;;;;;;;7.85;4.80;;;21.50;90.40;;;;;;5019095;28;20052;-73
2023/09/26 10:37:48;;;;;;;12.52;5.20;;;21.50;91.30;;;;;;5002730;28;20045;-73
2023/09/26 10:40:16;;;;;;;8.40;4.72;;;21.50;92.00;;;;;;5019112;28;20398;-74
2023/09/26 10:42:43;;;;;;;10.20;4.85;;;21.50;93.20;;;;;;5018939;28;20509;-74
2023/09/26 10:45:13;;;;;;;8.10;5.55;;;21.40;93.30;;;;;;5018961;28;20033;-74
2023/09/26 10:47:40;;;;;;;8.85;5.80;;;21.30;94.00;;;;;;5019137;28;20037;-74
2023/09/26 10:50:08;;;;;;;7.93;5.38;;;21.20;94.40;;;;;;5018749;28;20128;-74
2023/09/26 10:52:35;;;;;;;8.13;5.28;;;21.20;94.70;;;;;;5018789;28;20502;-74
2023/09/26 10:55:04;;;;;;;8.60;5.28;;;21.20;95.30;;;;;;5018595;28;20498;-73
2023/09/26 10:57:30;;;;;;;9.93;5.68;;;21.20;95.50;;;;;;5018672;28;20041;-74
2023/09/26 10:59:56;;;;;;;7.03;5.20;;;21.20;95.50;;;;;;5018543;28;20107;-74
2023/09/26 11:02:22;;;;;;;8.15;5.70;;;21.20;95.90;;;;;;5002204;28;20128;-74
2023/09/26 11:04:47;;;;;;;10.05;5.63;;;21.30;95.60;;;;;;5002111;28;20041;-74
2023/09/26 11:07:15;;;;;;;11.07;4.93;;;21.40;95.80;;;;;;5018612;28;20045;-74
2023/09/26 11:09:44;;;;;;;9.77;5.72;;;21.40;95.80;;;;;;5018602;28;20053;-74
2023/09/26 11:12:12;;;;;;;7.40;5.20;;;21.40;95.30;;;;;;5002206;28;20041;-74
2023/09/26 11:14:37;;;;;;;8.07;5.72;;;21.40;95.70;;;;;;5018302;28;20482;-74
2023/09/26 11:17:04;;;;;;;8.00;5.50;;;21.40;95.70;;;;;;5018636;28;20052;-74
2023/09/26 11:19:30;;;;;;;8.27;5.65;;;21.40;96.00;;;;;;5018590;28;20142;-75
2023/09/26 11:21:56;;;;;;;12.07;5.43;;;21.40;95.40;;;;;;5018342;28;20041;-72
2023/09/26 11:24:35;;;;;;;10.50;5.53;;;21.30;95.80;;;;;;5018184;28;20402;-72
2023/09/26 11:27:05;;;;;;;9.02;5.55;;;21.30;96.00;;;;;;5017705;28;20076;-72
2023/09/26 11:29:34;;;;;;;9.40;6.40;;;21.30;96.10;;;;;;5018295;28;20037;-74
2023/09/26 11:32:01;;;;;;;10.80;5.70;;;21.20;96.40;;;;;;5017795;28;20069;-74
2023/09/26 11:34:26;;;;;;;9.15;5.57;;;21.20;96.70;;;;;;5017990;28;20042;-74
2023/09/26 11:36:52;;;;;;;9.88;5.63;;;21.30;97.00;;;;;;5001723;28;20041;-74
2023/09/26 11:39:19;;;;;;;6.85;5.63;;;21.30;97.30;;;;;;5017798;28;20091;-74
2023/09/26 11:41:46;;;;;;;10.23;5.70;;;21.40;97.40;;;;;;5017797;28;20099;-74
2023/09/26 11:44:13;;;;;;;13.02;6.35;;;21.50;97.20;;;;;;5017726;28;20418;-74
2023/09/26 11:46:44;;;;;;;12.38;6.28;;;21.50;96.60;;;;;;5017986;28;20059;-74
2023/09/26 11:49:12;;;;;;;7.40;5.32;;;21.60;97.30;;;;;;5001366;28;20033;-74
2023/09/26 11:51:38;;;;;;;11.43;5.63;;;21.50;97.70;;;;;;5017667;28;20068;-74
2023/09/26 11:54:05;;;;;;;12.43;6.32;;;21.50;97.60;;;;;;5017529;28;20037;-72
2023/09/26 11:56:31;;;;;;;9.00;5.70;;;21.60;97.50;;;;;;5017964;28;20038;-72
2023/09/26 11:58:57;;;;;;;9.25;5.63;;;21.60;97.90;;;;;;5017578;28;20037;-72
2023/09/26 12:01:23;;;;;;;8.00;5.85;;;21.70;98.00;;;;;;5017422;28;20037;-72
2023/09/26 12:03:48;;;;;;;8.60;6.20;;;21.90;97.90;;;;;;5017405;28;20080;-72
2023/09/26 12:06:14;;;;;;;8.90;6.07;;;22.00;97.10;;;;;;5017427;28;20079;-72
2023/09/26 12:08:39;;;;;;;7.38;5.88;;;22.20;97.40;;;;;;5017415;28;20037;-70
2023/09/26 12:11:05;;;;;;;9.68;5.35;;;22.30;97.10;;;;;;5017276;28;20076;-70
2023/09/26 12:13:31;;;;;;;11.95;6.53;;;22.40;97.10;;;;;;5017169;28;20039;-70
2023/09/26 12:15:57;;;;;;;7.75;6.32;;;22.40;97.20;;;;;;5017200;28;20041;-70
2023/09/26 12:18:23;;;;;;;7.22;5.93;;;22.30;97.20;;;;;;5017132;28;20037;-70
2023/09/26 12:20:54;;;;;;;9.70;5.88;;;22.30;97.50;;;;;;5017017;28;20111;-70
2023/09/26 12:23:21;;;;;;;10.75;6.50;;;22.30;97.10;;;;;;5017100;28;20048;-70
2023/09/26 12:25:48;;;;;;;9.07;6.18;;;22.20;96.50;;;;;;5017019;28;20037;-70
2023/09/26 12:28:13;;;;;;;12.50;6.28;;;22.20;96.80;;;;;;5017199;28;20033;-70
2023/09/26 12:30:41;;;;;;;11.00;5.95;;;22.10;97.50;;;;;;5016858;28;20490;-70
2023/09/26 12:33:06;;;;;;;10.80;6.20;;;22.20;97.40;;;;;;5016964;28;20052;-71
2023/09/26 12:35:32;;;;;;;8.20;6.28;;;22.30;97.10;;;;;;5016884;28;20405;-71
2023/09/26 12:37:59;;;;;;;12.38;6.50;;;22.40;97.30;;;;;;5016429;28;20038;-71